Time;durP1;ratioP1;P1;durP2;ratioP2;P2;SDS_P1;SDS_P2;PMS_P1;PMS_P2;Temp;Humidity;BMP_temperature;BMP_pressure;BME280_temperature;BME280_humidity;BME280_pressure;Samples;Min_cycle;Max_cycle;Signal;HPM_P1;HPM_P2
2023/12/30 00:01:27;;;;;;;4.10;0.67;;;;;;;14.21;46.71;100989.34;5051284;28;20495;-75
2023/12/30 00:03:53;;;;;;;4.70;0.67;;;;;;;15.70;44.21;100989.97;5064077;28;20035;-76
2023/12/30 00:06:19;;;;;;;1.70;0.60;;;;;;;15.05;45.20;100996.97;5072112;28;20087;-75
2023/12/30 00:08:45;;;;;;;2.47;0.80;;;;;;;14.89;45.66;101003.53;5060660;28;20029;-75
2023/12/30 00:11:10;;;;;;;2.37;0.57;;;;;;;14.80;45.81;101006.41;5051910;28;20082;-75
2023/12/30 00:13:39;;;;;;;2.30;0.50;;;;;;;15.08;44.87;101003.94;5050585;28;20510;-76
2023/12/30 00:16:05;;;;;;;1.60;0.60;;;;;;;15.20;44.64;101018.53;5052917;28;20032;-75
2023/12/30 00:18:31;;;;;;;6.30;0.50;;;;;;;14.89;45.07;101007.03;5059636;28;20029;-76
2023/12/30 00:20:57;;;;;;;4.07;1.00;;;;;;;14.50;46.67;101007.06;5070713;28;20021;-75
2023/12/30 00:23:23;;;;;;;0.70;0.30;;;;;;;13.84;46.86;101019.03;5071257;28;20056;-75
2023/12/30 00:25:48;;;;;;;6.20;0.70;;;;;;;14.67;45.28;101011.09;5072292;28;20600;-76
2023/12/30 00:28:13;;;;;;;3.57;0.40;;;;;;;14.20;45.78;101006.00;5065073;28;20495;-75
2023/12/30 00:30:39;;;;;;;0.80;0.30;;;;;;;14.17;46.16;101006.09;5050457;28;20025;-75
2023/12/30 00:33:05;;;;;;;1.33;0.60;;;;;;;14.85;45.92;100999.25;5052263;28;20380;-75
2023/12/30 00:35:30;;;;;;;6.07;0.40;;;;;;;15.38;43.98;100999.59;5050005;28;20031;-76
2023/12/30 00:37:56;;;;;;;5.80;0.73;;;;;;;14.82;44.92;101000.19;5047428;28;20029;-76
2023/12/30 00:40:22;;;;;;;3.53;0.70;;;;;;;14.62;45.43;101008.56;5071505;28;20028;-76
2023/12/30 00:42:47;;;;;;;0.90;0.30;;;;;;;14.69;45.49;101007.53;5069961;28;20801;-75
2023/12/30 00:45:12;;;;;;;0.50;0.40;;;;;;;14.15;46.55;101007.88;5053087;28;20032;-75
2023/12/30 00:47:38;;;;;;;6.73;0.87;;;;;;;14.72;45.37;101017.97;5051285;28;20051;-76
2023/12/30 00:50:04;;;;;;;6.07;0.60;;;;;;;14.73;45.21;101014.44;5067629;28;20033;-76
2023/12/30 00:52:29;;;;;;;2.00;0.60;;;;;;;14.40;45.66;101019.56;5070314;28;20116;-76
2023/12/30 00:54:55;;;;;;;5.67;0.90;;;;;;;15.07;44.85;101029.41;5056186;28;20102;-75
2023/12/30 00:57:20;;;;;;;2.73;0.63;;;;;;;14.75;45.50;101031.06;5049832;28;20028;-74
2023/12/30 00:59:45;;;;;;;7.93;0.50;;;;;;;14.56;45.14;101033.25;5051505;28;20025;-75
2023/12/30 01:02:11;;;;;;;5.00;0.60;;;;;;;14.29;46.06;101032.09;5050104;28;20029;-75
2023/12/30 01:04:36;;;;;;;6.67;0.70;;;;;;;14.27;45.82;101038.28;5050641;28;20029;-75
2023/12/30 01:07:01;;;;;;;5.27;0.40;;;;;;;14.30;46.07;101044.34;5050181;28;20043;-75
2023/12/30 01:09:27;;;;;;;3.47;0.93;;;;;;;14.84;45.25;101034.38;5051385;28;20420;-76
2023/12/30 01:11:52;;;;;;;6.90;0.87;;;;;;;14.83;44.50;101027.38;5051040;28;20028;-75
2023/12/30 01:14:18;;;;;;;5.80;0.70;;;;;;;14.63;44.83;101036.63;5058896;28;20111;-76
2023/12/30 01:16:43;;;;;;;7.63;0.80;;;;;;;14.85;45.19;101029.06;5069284;28;20039;-75
2023/12/30 01:19:09;;;;;;;8.40;0.47;;;;;;;14.32;45.80;101036.44;5065045;28;20032;-75
2023/12/30 01:21:34;;;;;;;7.87;1.00;;;;;;;13.94;46.89;101038.97;5050734;28;20142;-76
2023/12/30 01:24:00;;;;;;;2.77;0.67;;;;;;;13.51;47.83;101042.47;5052633;28;20434;-75
2023/12/30 01:26:25;;;;;;;5.63;0.63;;;;;;;14.15;45.88;101040.28;5065984;28;20029;-75
2023/12/30 01:28:50;;;;;;;3.13;0.40;;;;;;;14.43;45.59;101035.28;5049525;28;20063;-75
2023/12/30 01:31:17;;;;;;;8.83;0.83;;;;;;;14.86;44.37;101043.94;5048778;28;20021;-76
2023/12/30 01:33:42;;;;;;;5.27;0.53;;;;;;;14.18;45.85;101055.13;5050665;28;20441;-76
2023/12/30 01:36:08;;;;;;;2.57;0.60;;;;;;;14.72;45.03;101044.28;5050147;28;20039;-76
2023/12/30 01:38:34;;;;;;;3.33;0.60;;;;;;;14.79;44.88;101049.41;5065666;28;20013;-76
2023/12/30 01:40:59;;;;;;;6.03;0.77;;;;;;;15.11;44.33;101048.59;5060372;28;20508;-76
2023/12/30 01:43:26;;;;;;;4.17;0.50;;;;;;;14.56;45.36;101058.66;5049695;28;20025;-75
2023/12/30 01:45:53;;;;;;;3.80;0.57;;;;;;;15.02;44.36;101057.59;5059623;28;20032;-76
2023/12/30 01:48:22;;;;;;;8.33;1.43;;;;;;;14.61;45.65;101069.09;5049645;28;20053;-76
2023/12/30 01:50:52;;;;;;;3.00;0.40;;;;;;;13.70;47.30;101075.34;5058814;28;20050;-75
2023/12/30 01:53:19;;;;;;;2.20;0.57;;;;;;;14.02;46.14;101078.25;5048961;28;20024;-75
2023/12/30 01:55:47;;;;;;;4.83;0.57;;;;;;;13.76;46.92;101074.34;5057618;28;20028;-75
2023/12/30 01:58:12;;;;;;;8.93;0.80;;;;;;;14.02;45.64;101086.13;5050991;28;20025;-75
2023/12/30 02:00:40;;;;;;;14.97;0.83;;;;;;;14.45;45.22;101089.59;5048239;28;20036;-75
2023/12/30 02:03:06;;;;;;;3.83;0.57;;;;;;;14.50;45.19;101090.38;5048097;28;20028;-75
2023/12/30 02:05:31;;;;;;;5.53;0.67;;;;;;;14.64;44.62;101093.56;5060201;28;20384;-76
2023/12/30 02:07:58;;;;;;;5.27;0.50;;;;;;;14.50;44.99;101103.53;5070391;28;20032;-76
2023/12/30 02:10:23;;;;;;;0.90;0.40;;;;;;;14.65;44.98;101094.47;5049984;28;20028;-76
2023/12/30 02:12:49;;;;;;;3.73;0.70;;;;;;;14.19;45.74;101093.66;5065328;28;20389;-76
2023/12/30 02:15:17;;;;;;;5.33;0.80;;;;;;;14.40;45.29;101103.72;5071341;28;20021;-76
2023/12/30 02:17:43;;;;;;;3.67;0.67;;;;;;;13.99;45.59;101104.59;5068993;28;20040;-75
2023/12/30 02:20:09;;;;;;;1.50;0.70;;;;;;;15.00;44.83;101096.28;5055735;28;20487;-75
2023/12/30 02:22:35;;;;;;;5.80;0.80;;;;;;;14.27;45.64;101101.38;5054037;28;20103;-75
2023/12/30 02:25:02;;;;;;;9.93;1.50;;;;;;;14.49;45.91;101101.78;5049231;28;20529;-76
2023/12/30 02:27:27;;;;;;;2.60;0.80;;;;;;;14.29;45.82;101105.72;5049605;28;20481;-76
2023/12/30 02:29:52;;;;;;;5.20;0.90;;;;;;;15.01;45.05;101105.88;5047666;28;20031;-75
2023/12/30 02:32:18;;;;;;;2.07;0.60;;;;;;;14.59;45.09;101119.13;5049215;28;20029;-76
2023/12/30 02:34:44;;;;;;;1.03;0.57;;;;;;;15.10;44.44;101110.91;5033507;28;20029;-74
2023/12/30 02:37:10;;;;;;;6.63;0.73;;;;;;;15.04;44.28;101111.09;5052645;28;20028;-76
2023/12/30 02:39:35;;;;;;;8.50;0.93;;;;;;;15.40;43.81;101107.53;5068447;28;20034;-76
2023/12/30 02:42:01;;;;;;;1.57;0.40;;;;;;;14.79;44.97;101116.03;5058265;28;20095;-75
2023/12/30 02:44:26;;;;;;;0.67;0.47;;;;;;;14.59;45.63;101124.38;5048731;28;20029;-75
2023/12/30 02:46:51;;;;;;;2.23;0.63;;;;;;;14.86;45.11;101116.78;5056833;28;20530;-75
2023/12/30 02:49:19;;;;;;;1.27;0.47;;;;;;;14.68;45.62;101118.91;5063727;28;20032;-75
2023/12/30 02:51:44;;;;;;;4.20;0.70;;;;;;;15.12;44.51;101115.28;5050132;28;20017;-75
2023/12/30 02:54:09;;;;;;;5.57;0.83;;;;;;;14.13;46.23;101120.09;5044335;28;20021;-75
2023/12/30 02:56:35;;;;;;;5.70;0.73;;;;;;;14.26;46.05;101118.94;5055128;28;20028;-75
2023/12/30 02:59:01;;;;;;;5.13;0.50;;;;;;;14.72;45.49;101115.31;5048089;28;20609;-75
2023/12/30 03:01:29;;;;;;;8.13;0.83;;;;;;;14.34;45.94;101114.38;5051121;28;20033;-75
2023/12/30 03:03:56;;;;;;;6.03;0.70;;;;;;;15.39;44.01;101111.97;5058566;28;20029;-75
2023/12/30 03:06:22;;;;;;;3.60;0.50;;;;;;;14.33;45.72;101120.53;5048775;28;20037;-75
2023/12/30 03:08:48;;;;;;;5.43;0.53;;;;;;;14.79;45.27;101117.81;5059021;28;20074;-75
2023/12/30 03:11:13;;;;;;;2.90;0.77;;;;;;;14.84;45.22;101110.69;5049541;28;20021;-75
2023/12/30 03:13:38;;;;;;;7.03;0.70;;;;;;;13.79;46.94;101121.59;5049034;28;20029;-74
2023/12/30 03:16:04;;;;;;;3.67;0.80;;;;;;;14.21;45.70;101112.91;5052108;28;20025;-75
2023/12/30 03:18:30;;;;;;;2.93;0.50;;;;;;;14.21;46.20;101118.16;5051380;28;20044;-74
2023/12/30 03:20:56;;;;;;;0.70;0.33;;;;;;;15.35;43.88;101110.31;5067988;28;20029;-75
2023/12/30 03:23:21;;;;;;;4.27;0.50;;;;;;;14.79;44.56;101125.72;5071574;28;20056;-76
2023/12/30 03:25:46;;;;;;;1.53;0.60;;;;;;;14.20;45.51;101129.56;5053131;28;20056;-75
2023/12/30 03:28:12;;;;;;;3.50;0.90;;;;;;;14.49;45.21;101134.19;5063591;28;20040;-76
2023/12/30 03:30:37;;;;;;;5.93;0.43;;;;;;;14.16;45.91;101135.78;5071495;28;20024;-75
2023/12/30 03:33:03;;;;;;;6.23;0.83;;;;;;;14.91;44.40;101142.06;5067889;28;20437;-75
2023/12/30 03:35:33;;;;;;;3.63;1.13;;;;;;;14.58;45.13;101138.41;5072237;28;20031;-75
2023/12/30 03:37:58;;;;;;;3.40;0.90;;;;;;;13.93;46.12;101144.13;5062759;28;20025;-76
2023/12/30 03:40:23;;;;;;;6.20;0.97;;;;;;;14.36;45.72;101138.00;5051991;28;20025;-75
2023/12/30 03:42:49;;;;;;;5.13;0.80;;;;;;;14.12;45.70;101128.84;5057890;28;20135;-76
2023/12/30 03:45:14;;;;;;;12.53;1.20;;;;;;;14.38;45.44;101125.69;5072532;28;20039;-75
2023/12/30 03:47:39;;;;;;;4.67;0.50;;;;;;;14.78;44.73;101116.09;5067955;28;20044;-75
2023/12/30 03:50:05;;;;;;;2.00;0.50;;;;;;;14.43;45.15;101122.06;5071811;28;20058;-75
2023/12/30 03:52:30;;;;;;;4.47;0.53;;;;;;;14.52;45.52;101128.00;5058543;28;20029;-75
2023/12/30 03:54:56;;;;;;;4.00;0.50;;;;;;;13.73;46.67;101132.22;5071937;28;20111;-75
2023/12/30 03:57:22;;;;;;;3.60;1.03;;;;;;;14.30;45.92;101136.38;5060376;28;20423;-75
2023/12/30 03:59:47;;;;;;;5.57;0.90;;;;;;;14.60;45.26;101136.59;5067349;28;20112;-76
2023/12/30 04:02:13;;;;;;;7.00;0.97;;;;;;;14.14;45.53;101137.59;5069214;28;20021;-75
2023/12/30 04:04:40;;;;;;;4.87;0.67;;;;;;;14.20;45.79;101127.78;5051263;28;20042;-75
2023/12/30 04:07:06;;;;;;;2.87;0.57;;;;;;;14.41;45.72;101131.75;5051164;28;20021;-75
2023/12/30 04:09:31;;;;;;;6.83;1.07;;;;;;;14.31;46.00;101134.59;5072570;28;20369;-75
2023/12/30 04:11:57;;;;;;;5.97;0.37;;;;;;;14.13;45.89;101134.06;5071332;28;20078;-75
2023/12/30 04:14:22;;;;;;;5.40;1.10;;;;;;;14.30;45.64;101128.50;5048703;28;20025;-76
2023/12/30 04:16:47;;;;;;;6.43;0.70;;;;;;;14.35;45.98;101131.88;5054875;28;20628;-75
2023/12/30 04:19:15;;;;;;;8.53;0.63;;;;;;;14.71;44.90;101134.66;5050893;28;20120;-75
2023/12/30 04:21:41;;;;;;;2.07;0.53;;;;;;;14.43;45.40;101134.34;5050419;28;20028;-75
2023/12/30 04:24:06;;;;;;;5.87;1.40;;;;;;;14.63;45.34;101140.97;5051164;28;20028;-76
2023/12/30 04:26:32;;;;;;;6.40;0.63;;;;;;;14.37;45.38;101139.72;5046294;28;20389;-75
2023/12/30 04:28:57;;;;;;;4.27;0.60;;;;;;;14.35;45.92;101137.13;5062857;28;20025;-75
2023/12/30 04:31:22;;;;;;;6.00;1.00;;;;;;;14.29;45.53;101142.53;5051148;28;20463;-75
2023/12/30 04:33:48;;;;;;;1.93;0.50;;;;;;;14.65;45.14;101144.44;5063987;28;20247;-75
2023/12/30 04:36:13;;;;;;;3.03;0.60;;;;;;;14.57;44.67;101147.19;5071030;28;20495;-74
2023/12/30 04:38:39;;;;;;;5.87;0.57;;;;;;;15.10;43.89;101146.94;5060462;28;20083;-75
2023/12/30 04:41:04;;;;;;;2.50;0.63;;;;;;;14.35;45.67;101157.31;5050568;28;20473;-75
2023/12/30 04:43:30;;;;;;;8.80;1.67;;;;;;;13.99;45.94;101160.63;5068413;28;20021;-75
2023/12/30 04:45:57;;;;;;;10.33;0.60;;;;;;;14.80;44.53;101156.41;5051033;28;20035;-75
2023/12/30 04:48:23;;;;;;;7.80;0.60;;;;;;;13.96;46.35;101160.69;5052925;28;20044;-76
2023/12/30 04:50:48;;;;;;;3.37;0.50;;;;;;;14.20;46.20;101158.47;5069965;28;20476;-76
2023/12/30 04:53:14;;;;;;;4.70;0.90;;;;;;;14.39;45.39;101145.84;5063122;28;20060;-75
2023/12/30 04:55:39;;;;;;;2.43;0.33;;;;;;;13.82;45.78;101163.59;5050589;28;20094;-74
2023/12/30 04:58:04;;;;;;;4.03;0.60;;;;;;;13.87;46.21;101168.75;5050525;28;20023;-75
2023/12/30 05:00:30;;;;;;;1.13;0.50;;;;;;;13.49;47.11;101173.78;5046503;28;20032;-75
2023/12/30 05:02:55;;;;;;;10.33;0.70;;;;;;;14.46;45.33;101176.34;5037674;28;20103;-76
2023/12/30 05:05:20;;;;;;;3.97;1.03;;;;;;;12.85;48.27;101176.47;5050290;28;20057;-75
2023/12/30 05:07:46;;;;;;;3.03;0.73;;;;;;;13.61;46.84;101179.72;5052977;28;20028;-75
2023/12/30 05:10:11;;;;;;;9.27;0.63;;;;;;;14.16;45.57;101177.84;5069701;28;20024;-75
2023/12/30 05:12:37;;;;;;;3.00;0.30;;;;;;;14.55;44.61;101170.06;5070162;28;20472;-75
2023/12/30 05:15:02;;;;;;;6.33;0.80;;;;;;;14.93;44.14;101178.88;5049442;28;20025;-75
2023/12/30 05:17:31;;;;;;;4.67;0.67;;;;;;;15.15;44.23;101170.50;5049590;28;20021;-75
2023/12/30 05:19:56;;;;;;;2.67;0.37;;;;;;;14.31;45.19;101172.28;5049971;28;20033;-75
2023/12/30 05:22:22;;;;;;;9.47;0.53;;;;;;;14.19;45.48;101178.66;5046610;28;20026;-75
2023/12/30 05:24:47;;;;;;;3.67;0.57;;;;;;;14.89;44.06;101174.59;5030337;28;20028;-75
2023/12/30 05:27:12;;;;;;;3.60;1.10;;;;;;;14.01;45.47;101177.25;5040535;28;20476;-75
2023/12/30 05:29:38;;;;;;;2.17;0.70;;;;;;;14.67;44.82;101175.09;5051824;28;20471;-75
2023/12/30 05:32:05;;;;;;;0.67;0.23;;;;;;;15.07;43.23;101184.72;5048966;28;20021;-75
2023/12/30 05:34:30;;;;;;;10.13;1.07;;;;;;;15.03;43.87;101183.06;5064825;28;20028;-75
2023/12/30 05:36:55;;;;;;;6.10;1.13;;;;;;;14.34;44.98;101193.28;5068743;28;20095;-75
2023/12/30 05:39:21;;;;;;;5.40;1.17;;;;;;;15.03;43.68;101188.31;5055686;28;20025;-75
2023/12/30 05:41:46;;;;;;;6.83;0.90;;;;;;;15.06;43.11;101190.88;5050544;28;20094;-75
2023/12/30 05:44:12;;;;;;;3.80;0.60;;;;;;;15.20;43.38;101185.28;5045070;28;20025;-76
2023/12/30 05:46:37;;;;;;;4.83;0.50;;;;;;;15.07;43.61;101194.34;5029419;28;20037;-75
2023/12/30 05:49:02;;;;;;;9.03;0.73;;;;;;;14.98;43.72;101190.19;5050941;28;20093;-75
2023/12/30 05:51:30;;;;;;;1.70;0.70;;;;;;;15.16;43.24;101193.31;5068722;28;20056;-75
2023/12/30 05:53:56;;;;;;;6.03;0.93;;;;;;;15.43;42.44;101184.72;5058236;28;20069;-75
2023/12/30 05:56:23;;;;;;;2.67;0.47;;;;;;;15.01;43.35;101195.38;5064317;28;20428;-76
2023/12/30 05:58:49;;;;;;;11.17;1.00;;;;;;;14.40;44.67;101193.13;5048420;28;20598;-76
2023/12/30 06:01:15;;;;;;;3.77;0.37;;;;;;;15.21;43.33;101186.16;5049511;28;20031;-75
2023/12/30 06:03:40;;;;;;;3.53;0.97;;;;;;;15.04;43.54;101205.84;5055344;28;20119;-75
2023/12/30 06:06:06;;;;;;;1.53;0.70;;;;;;;15.20;43.26;101210.75;5063645;28;20071;-75
2023/12/30 06:08:33;;;;;;;2.47;0.57;;;;;;;14.87;43.94;101208.00;5070976;28;20040;-76
2023/12/30 06:10:58;;;;;;;0.73;0.40;;;;;;;14.93;43.28;101207.84;5067163;28;20031;-75
2023/12/30 06:13:24;;;;;;;4.53;0.70;;;;;;;15.22;43.24;101214.19;5051919;28;20452;-75
2023/12/30 06:15:52;;;;;;;5.63;0.70;;;;;;;14.92;43.92;101214.03;5069197;28;20046;-75
2023/12/30 06:18:18;;;;;;;0.53;0.33;;;;;;;14.80;44.14;101216.94;5067236;28;20023;-75
2023/12/30 06:20:46;;;;;;;3.37;0.60;;;;;;;14.98;43.68;101215.66;5044535;28;20367;-75
2023/12/30 06:23:13;;;;;;;5.57;0.97;;;;;;;15.65;42.67;101215.81;5039012;28;20036;-75
2023/12/30 06:25:39;;;;;;;6.80;0.80;;;;;;;15.07;43.45;101220.69;5053514;28;20118;-75
2023/12/30 06:28:05;;;;;;;2.27;0.70;;;;;;;15.13;43.52;101219.72;5045903;28;20028;-75
2023/12/30 06:30:30;;;;;;;3.33;0.57;;;;;;;15.00;43.98;101219.09;5070186;28;20115;-76
2023/12/30 06:32:55;;;;;;;2.00;0.60;;;;;;;15.14;43.98;101218.78;5069524;28;20021;-76
2023/12/30 06:35:21;;;;;;;2.80;0.70;;;;;;;14.80;44.26;101217.78;5050082;28;20119;-75
2023/12/30 06:37:49;;;;;;;3.77;0.60;;;;;;;14.66;44.89;101210.19;5049951;28;20053;-75
2023/12/30 06:40:15;;;;;;;1.87;0.70;;;;;;;14.59;45.13;101209.41;5048979;28;20060;-75
2023/12/30 06:42:44;;;;;;;10.30;1.13;;;;;;;14.72;45.20;101215.28;5048164;28;20625;-75
2023/12/30 06:45:10;;;;;;;6.97;0.60;;;;;;;15.21;44.47;101228.31;5063165;28;20028;-76
2023/12/30 06:47:36;;;;;;;2.73;0.57;;;;;;;15.46;43.48;101220.66;5068967;28;20479;-75
2023/12/30 06:50:01;;;;;;;2.00;0.30;;;;;;;16.02;42.83;101216.66;5059844;28;20053;-75
2023/12/30 06:52:26;;;;;;;5.53;0.80;;;;;;;15.68;43.16;101207.81;5053951;28;20083;-75
2023/12/30 06:54:53;;;;;;;9.17;0.63;;;;;;;15.24;44.55;101212.41;5060801;28;20032;-75
2023/12/30 06:57:19;;;;;;;7.53;0.60;;;;;;;15.36;44.21;101196.31;5063472;28;20059;-76
2023/12/30 06:59:44;;;;;;;7.33;1.63;;;;;;;16.21;42.24;101195.91;5059772;28;20020;-75
2023/12/30 07:02:10;;;;;;;6.73;0.60;;;;;;;15.95;43.09;101194.88;5053246;28;20021;-75
2023/12/30 07:04:35;;;;;;;13.87;1.70;;;;;;;14.74;45.74;101203.00;5056183;28;20135;-75
2023/12/30 07:07:00;;;;;;;4.87;0.73;;;;;;;15.49;44.35;101188.97;5052057;28;20082;-75
2023/12/30 07:09:26;;;;;;;7.10;1.10;;;;;;;15.47;45.32;101195.19;5049819;28;20029;-76
2023/12/30 07:11:51;;;;;;;4.13;0.90;;;;;;;14.88;47.30;101199.19;5052203;28;20025;-76
2023/12/30 07:14:16;;;;;;;1.20;0.70;;;;;;;15.00;46.95;101198.94;5052612;28;20545;-75
2023/12/30 07:16:42;;;;;;;8.33;0.93;;;;;;;14.10;49.42;101199.00;5055259;28;20028;-76
2023/12/30 07:19:07;;;;;;;4.80;0.90;;;;;;;14.34;49.51;101211.69;5049385;28;20028;-75
2023/12/30 07:21:32;;;;;;;3.67;0.73;;;;;;;14.43;49.11;101203.59;5046468;28;20158;-76
2023/12/30 07:23:58;;;;;;;2.93;0.50;;;;;;;14.20;49.01;101211.06;5046338;28;20028;-75
2023/12/30 07:26:23;;;;;;;5.53;0.90;;;;;;;14.17;49.49;101221.66;5044352;28;20017;-75
2023/12/30 07:28:48;;;;;;;4.37;1.00;;;;;;;14.64;48.54;101225.13;5049495;28;20118;-76
2023/12/30 07:31:15;;;;;;;6.27;0.87;;;;;;;14.02;49.71;101223.66;5060745;28;20110;-76
2023/12/30 07:33:41;;;;;;;8.23;1.07;;;;;;;14.04;50.27;101224.50;5074977;28;20016;-74
2023/12/30 07:36:07;;;;;;;5.73;0.83;;;;;;;13.57;52.11;101241.94;5068756;28;20571;-77
2023/12/30 07:38:33;;;;;;;8.23;1.10;;;;;;;13.13;53.35;101251.31;5068211;28;20043;-77
2023/12/30 07:40:59;;;;;;;4.23;0.83;;;;;;;13.67;52.06;101247.91;5061243;28;20391;-77
2023/12/30 07:43:24;;;;;;;1.57;0.53;;;;;;;14.30;50.92;101241.56;5067694;28;20028;-77
2023/12/30 07:45:49;;;;;;;5.80;1.03;;;;;;;13.15;53.15;101249.56;5075467;28;20021;-77
2023/12/30 07:48:15;;;;;;;11.07;1.03;;;;;;;13.13;53.31;101251.31;5058240;28;20048;-77
2023/12/30 07:50:41;;;;;;;9.37;0.80;;;;;;;14.10;51.43;101260.31;5033024;28;20181;-77
2023/12/30 07:53:06;;;;;;;7.53;0.40;;;;;;;13.65;52.27;101271.56;5032591;28;20551;-75
2023/12/30 07:55:31;;;;;;;2.37;0.80;;;;;;;13.83;52.92;101264.28;5051944;28;20538;-77
2023/12/30 07:57:57;;;;;;;11.10;1.50;;;;;;;13.47;53.00;101261.34;5055167;28;20076;-77
2023/12/30 08:00:22;;;;;;;8.30;0.93;;;;;;;13.95;52.03;101279.84;5051861;28;20029;-77
2023/12/30 08:02:48;;;;;;;9.33;0.70;;;;;;;14.42;50.72;101269.38;5052354;28;20421;-77
2023/12/30 08:05:13;;;;;;;6.07;1.00;;;;;;;14.93;49.64;101271.00;5051092;28;20031;-77
2023/12/30 08:07:38;;;;;;;8.07;1.03;;;;;;;14.27;51.09;101265.25;5051881;28;20021;-77
2023/12/30 08:10:04;;;;;;;5.73;0.87;;;;;;;14.90;49.16;101268.44;5052271;28;20025;-77
2023/12/30 08:12:29;;;;;;;3.90;1.10;;;;;;;14.00;51.96;101270.13;5067865;28;20074;-77
2023/12/30 08:14:55;;;;;;;6.87;1.10;;;;;;;14.23;51.70;101284.59;5051965;28;20113;-77
2023/12/30 08:17:20;;;;;;;4.87;0.90;;;;;;;14.41;51.24;101272.88;5064507;28;20029;-77
2023/12/30 08:19:45;;;;;;;6.13;1.23;;;;;;;13.42;53.65;101284.19;5060162;28;20036;-77
2023/12/30 08:22:11;;;;;;;7.37;0.90;;;;;;;13.69;53.53;101278.50;5060136;28;20569;-77
2023/12/30 08:24:36;;;;;;;6.37;1.00;;;;;;;14.89;50.96;101279.88;5051343;28;20442;-78
2023/12/30 08:27:02;;;;;;;8.33;1.37;;;;;;;14.10;52.06;101288.38;5061030;28;20024;-77
2023/12/30 08:29:30;;;;;;;6.87;1.30;;;;;;;14.18;52.68;101281.22;5053632;28;20382;-78
2023/12/30 08:31:55;;;;;;;12.97;1.33;;;;;;;14.52;52.01;101284.09;5060262;28;20024;-78
2023/12/30 08:34:21;;;;;;;5.93;1.17;;;;;;;14.12;53.16;101291.81;5071155;28;20017;-77
2023/12/30 08:36:46;;;;;;;15.17;2.70;;;;;;;13.63;54.48;101289.13;5065214;28;20068;-76
2023/12/30 08:39:12;;;;;;;2.87;1.00;;;;;;;13.42;55.02;101286.81;5051395;28;20396;-77
2023/12/30 08:41:38;;;;;;;6.70;0.80;;;;;;;13.61;54.51;101284.78;5056074;28;20114;-78
2023/12/30 08:44:03;;;;;;;10.67;1.67;;;;;;;13.70;56.67;101290.75;5064461;28;20021;-77
2023/12/30 08:46:32;;;;;;;4.00;0.80;;;;;;;14.37;53.74;101285.25;5041308;28;20103;-78
2023/12/30 08:48:57;;;;;;;9.40;0.77;;;;;;;14.98;51.65;101284.94;5060095;28;20032;-77
2023/12/30 08:51:23;;;;;;;3.87;0.77;;;;;;;14.72;52.61;101288.13;5037758;28;20448;-77
2023/12/30 08:53:48;;;;;;;8.53;1.30;;;;;;;14.75;52.33;101283.66;5054512;28;20037;-78
2023/12/30 08:56:14;;;;;;;9.53;1.10;;;;;;;13.97;54.76;101287.69;5051412;28;20090;-77
2023/12/30 08:58:39;;;;;;;5.80;0.90;;;;;;;13.93;55.51;101292.16;5051853;28;20040;-78
2023/12/30 09:01:05;;;;;;;8.03;1.33;;;;;;;13.99;54.92;101297.28;5050358;28;20075;-78
2023/12/30 09:03:31;;;;;;;9.10;1.20;;;;;;;14.15;54.14;101300.53;5051896;28;20036;-77
2023/12/30 09:05:56;;;;;;;8.73;1.43;;;;;;;14.18;53.83;101292.59;5067717;28;20029;-78
2023/12/30 09:08:22;;;;;;;10.23;1.43;;;;;;;13.73;56.22;101295.94;5046622;28;20473;-77
2023/12/30 09:10:47;;;;;;;7.20;1.37;;;;;;;13.69;56.50;101294.25;5049552;28;20020;-78
2023/12/30 09:13:12;;;;;;;4.17;1.70;;;;;;;14.25;54.49;101293.34;5058193;28;20029;-77
2023/12/30 09:15:38;;;;;;;11.13;1.37;;;;;;;13.80;55.33;101301.13;5049833;28;20025;-77
2023/12/30 09:18:04;;;;;;;7.47;1.43;;;;;;;15.06;52.81;101304.06;5058380;28;20056;-78
2023/12/30 09:20:30;;;;;;;8.50;1.07;;;;;;;14.55;53.01;101298.94;5046484;28;20056;-77
2023/12/30 09:22:55;;;;;;;4.50;1.40;;;;;;;14.89;52.36;101300.91;5069795;28;20040;-77
2023/12/30 09:25:20;;;;;;;3.50;1.33;;;;;;;14.34;54.12;101308.09;5070718;28;20025;-77
2023/12/30 09:27:48;;;;;;;8.83;1.17;;;;;;;15.16;52.33;101324.94;5064102;28;20086;-78
2023/12/30 09:30:13;;;;;;;6.00;0.93;;;;;;;15.28;50.80;101319.41;5034963;28;20033;-77
2023/12/30 09:32:39;;;;;;;4.10;1.10;;;;;;;15.85;49.90;101315.47;5056431;28;20040;-77
2023/12/30 09:35:05;;;;;;;6.23;1.07;;;;;;;15.87;49.90;101318.13;5049809;28;20392;-75
2023/12/30 09:37:30;;;;;;;5.30;1.50;;;;;;;15.49;50.84;101318.06;5034496;28;20025;-78
2023/12/30 09:39:56;;;;;;;13.47;1.13;;;;;;;15.21;50.78;101307.28;5049874;28;20481;-78
2023/12/30 09:42:22;;;;;;;10.10;1.07;;;;;;;15.57;50.24;101320.53;5052985;28;20029;-77
2023/12/30 09:44:49;;;;;;;11.83;1.50;;;;;;;15.33;51.51;101317.56;5055455;28;20028;-78
2023/12/30 09:47:17;;;;;;;8.60;0.87;;;;;;;15.73;50.27;101326.28;5048674;28;20050;-78
2023/12/30 09:49:44;;;;;;;8.43;0.93;;;;;;;15.21;51.68;101329.22;5050738;28;20029;-77
2023/12/30 09:52:09;;;;;;;6.53;1.13;;;;;;;15.16;52.34;101336.34;5066262;28;20059;-78
2023/12/30 09:54:35;;;;;;;12.87;1.30;;;;;;;14.05;54.98;101334.00;5049965;28;20068;-78
2023/12/30 09:57:02;;;;;;;8.07;1.40;;;;;;;15.36;52.04;101338.56;5045900;28;20033;-77
2023/12/30 09:59:30;;;;;;;6.30;1.60;;;;;;;14.86;52.86;101340.47;5054164;28;20491;-77
2023/12/30 10:01:56;;;;;;;4.50;1.10;;;;;;;14.79;53.03;101337.09;5049504;28;20040;-77
2023/12/30 10:04:24;;;;;;;10.10;1.23;;;;;;;14.97;52.35;101341.13;5051336;28;20459;-78
2023/12/30 10:06:51;;;;;;;7.00;1.10;;;;;;;14.73;52.90;101339.84;5049792;28;20051;-78
2023/12/30 10:09:19;;;;;;;2.87;1.23;;;;;;;14.84;53.10;101344.91;5045249;28;20033;-78
2023/12/30 10:11:48;;;;;;;4.63;1.20;;;;;;;14.95;53.78;101342.91;5029155;28;20026;-77
2023/12/30 10:14:14;;;;;;;14.93;1.37;;;;;;;14.53;54.47;101342.81;5062896;28;20510;-77
2023/12/30 10:16:39;;;;;;;12.33;3.07;;;;;;;15.92;51.19;101337.28;5051432;28;20128;-78
2023/12/30 10:19:09;;;;;;;4.83;0.50;;;;;;;15.01;53.37;101342.78;5049099;28;20404;-78
2023/12/30 10:21:36;;;;;;;6.17;0.80;;;;;;;15.06;53.43;101346.19;5050057;28;20025;-78
2023/12/30 10:24:04;;;;;;;12.13;1.17;;;;;;;15.15;53.87;101342.50;5047076;28;20481;-79
2023/12/30 10:26:30;;;;;;;4.70;1.00;;;;;;;15.96;51.73;101336.31;5062619;28;20039;-79
2023/12/30 10:28:55;;;;;;;13.20;2.10;;;;;;;14.42;54.61;101329.84;5060547;28;20463;-79
2023/12/30 10:31:21;;;;;;;16.10;2.80;;;;;;;16.57;50.98;101317.19;5051623;28;20025;-79
2023/12/30 10:33:48;;;;;;;9.30;0.93;;;;;;;15.66;52.01;101317.69;5048076;28;20028;-79
2023/12/30 10:36:15;;;;;;;8.17;2.17;;;;;;;16.03;51.80;101306.28;5054721;28;20103;-79
2023/12/30 10:38:41;;;;;;;10.40;1.57;;;;;;;15.75;53.08;101308.69;5059067;28;20040;-79
2023/12/30 10:41:07;;;;;;;12.27;1.50;;;;;;;16.01;51.74;101300.16;5054903;28;20033;-79
2023/12/30 10:43:32;;;;;;;8.13;2.60;;;;;;;16.13;53.03;101299.00;5059432;28;20365;-78
2023/12/30 10:45:59;;;;;;;10.53;1.70;;;;;;;16.10;51.30;101304.31;5067495;28;20029;-79
2023/12/30 10:48:33;;;;;;;4.83;1.30;;;;;;;16.43;51.10;101299.94;5053942;28;20048;-79
2023/12/30 10:51:00;;;;;;;12.00;2.30;;;;;;;17.03;50.45;101292.13;5053098;28;20428;-78
2023/12/30 10:53:29;;;;;;;10.70;1.40;;;;;;;16.87;50.66;101296.09;5056766;28;20454;-78
2023/12/30 10:56:03;;;;;;;8.63;1.27;;;;;;;15.60;53.71;101299.38;5073942;28;20032;-78
2023/12/30 10:58:35;;;;;;;10.93;1.70;;;;;;;16.40;52.49;101292.13;5070978;28;20024;-78
2023/12/30 11:01:04;;;;;;;6.80;2.47;;;;;;;14.87;56.19;101308.00;5051908;28;20052;-78
2023/12/30 11:03:32;;;;;;;15.33;3.40;;;;;;;15.60;55.26;101292.31;5054398;28;20032;-77
2023/12/30 11:06:09;;;;;;;5.77;1.70;;;;;;;16.25;52.97;101288.13;5049658;28;20047;-78
2023/12/30 11:08:35;;;;;;;4.83;2.13;;;;;;;15.30;56.42;101283.38;5041894;28;20083;-78
2023/12/30 11:11:04;;;;;;;14.07;2.70;;;;;;;16.75;52.75;101277.06;5058271;28;20033;-78
2023/12/30 11:13:53;;;;;;;12.17;2.77;;;;;;;15.50;56.20;101280.28;5041087;28;20029;-78
2023/12/30 11:16:19;;;;;;;11.83;3.23;;;;;;;16.61;52.83;101276.63;5049238;28;20079;-78
2023/12/30 11:18:45;;;;;;;14.13;3.00;;;;;;;15.99;54.86;101270.34;5050112;28;20032;-78